createdAt,value
2018-06-10T00:00:45.224Z,19.70
2018-06-10T00:03:13.650Z,19.70
2018-06-10T00:05:42.079Z,19.60
2018-06-10T00:08:10.504Z,19.60
2018-06-10T00:10:38.932Z,19.60
2018-06-10T00:13:07.336Z,19.60
2018-06-10T00:15:35.777Z,19.60
2018-06-10T00:18:04.188Z,19.50
2018-06-10T00:20:32.728Z,19.40
2018-06-10T00:27:57.456Z,19.30
2018-06-10T00:30:25.890Z,19.30
2018-06-10T00:32:54.322Z,19.40
2018-06-10T00:35:22.741Z,19.40
2018-06-10T00:37:51.181Z,19.40
2018-06-10T00:40:19.592Z,19.40
2018-06-10T00:42:48.117Z,19.40
2018-06-10T00:45:16.521Z,19.40
2018-06-10T00:47:45.042Z,19.40
2018-06-10T00:50:13.453Z,19.30
2018-06-10T00:52:41.933Z,19.30
2018-06-10T00:55:10.330Z,19.30
2018-06-10T00:57:38.808Z,19.30
2018-06-10T01:00:07.252Z,19.30
2018-06-10T01:05:03.964Z,19.30
2018-06-10T01:07:33.294Z,19.30
2018-06-10T01:10:01.734Z,19.20
2018-06-10T01:12:30.176Z,19.20
2018-06-10T01:14:58.608Z,19.10
2018-06-10T01:17:27.061Z,19.10
2018-06-10T01:19:55.494Z,19.00
2018-06-10T01:22:23.948Z,18.90
2018-06-10T01:24:52.405Z,18.80
2018-06-10T01:27:20.972Z,18.80
2018-06-10T01:29:49.398Z,18.80
2018-06-10T01:32:17.828Z,18.80
2018-06-10T01:34:46.256Z,18.70
2018-06-10T01:37:14.709Z,18.70
2018-06-10T01:39:43.138Z,18.70
2018-06-10T01:42:11.564Z,18.60
2018-06-10T01:44:39.996Z,18.60
2018-06-10T01:47:08.444Z,18.60
2018-06-10T01:49:36.852Z,18.60
2018-06-10T01:52:05.297Z,18.50
2018-06-10T01:54:33.688Z,18.50
2018-06-10T01:57:02.189Z,18.40
2018-06-10T01:59:30.597Z,18.40
2018-06-10T02:01:59.024Z,18.30
2018-06-10T02:04:27.424Z,18.30
2018-06-10T02:06:55.853Z,18.20
2018-06-10T02:09:24.268Z,18.20
2018-06-10T02:11:52.737Z,18.20
2018-06-10T02:14:21.246Z,18.10
2018-06-10T02:16:49.672Z,18.10
2018-06-10T02:19:18.110Z,18.10
2018-06-10T02:24:14.736Z,18.10
2018-06-10T02:26:43.597Z,18.10
2018-06-10T02:29:12.054Z,18.10
2018-06-10T02:31:40.471Z,18.00
2018-06-10T02:34:08.928Z,18.00
2018-06-10T02:36:37.345Z,18.00
2018-06-10T02:39:07.655Z,18.00
2018-06-10T02:41:36.068Z,18.00
2018-06-10T02:47:25.254Z,17.90
2018-06-10T02:49:53.643Z,17.90
2018-06-10T02:52:22.094Z,17.90
2018-06-10T02:54:50.473Z,17.90
2018-06-10T02:57:18.883Z,17.90
2018-06-10T02:59:47.315Z,17.80
2018-06-10T03:02:15.691Z,17.80
2018-06-10T03:04:44.108Z,17.80
2018-06-10T03:07:12.506Z,17.80
2018-06-10T03:09:40.925Z,17.80
2018-06-10T03:12:09.373Z,17.70
2018-06-10T03:14:37.789Z,17.70
2018-06-10T03:17:06.192Z,17.80
2018-06-10T03:19:34.614Z,17.80
2018-06-10T03:22:03.093Z,17.70
2018-06-10T03:24:31.508Z,17.70
2018-06-10T03:26:59.893Z,17.70
2018-06-10T03:31:56.401Z,17.70
2018-06-10T03:34:24.856Z,17.70
2018-06-10T03:36:53.233Z,17.70
2018-06-10T03:39:21.661Z,17.70
2018-06-10T03:41:50.070Z,17.70
2018-06-10T03:44:18.489Z,17.70
2018-06-10T03:46:46.880Z,17.80
2018-06-10T03:49:15.283Z,17.80
2018-06-10T03:51:43.716Z,17.80
2018-06-10T03:54:12.132Z,17.80
2018-06-10T03:56:40.541Z,17.90
2018-06-10T03:59:08.969Z,17.90
2018-06-10T04:01:37.408Z,17.90
2018-06-10T04:04:05.813Z,17.90
2018-06-10T04:06:34.223Z,18.00
2018-06-10T04:09:02.708Z,18.00
2018-06-10T04:11:31.087Z,18.10
2018-06-10T04:13:59.610Z,18.10
2018-06-10T04:16:29.225Z,18.10
2018-06-10T04:18:58.097Z,18.20
2018-06-10T04:21:26.485Z,18.20
2018-06-10T04:23:55.632Z,18.30
2018-06-10T04:26:24.301Z,18.30
2018-06-10T04:28:52.712Z,18.40
2018-06-10T04:31:21.087Z,18.40
2018-06-10T04:33:49.513Z,18.50
2018-06-10T04:36:17.903Z,18.50
2018-06-10T04:38:46.331Z,18.50
2018-06-10T04:41:14.718Z,18.50
2018-06-10T04:43:43.153Z,18.50
2018-06-10T04:46:11.570Z,18.50
2018-06-10T04:48:39.950Z,18.60
2018-06-10T04:51:08.354Z,18.60
2018-06-10T04:53:36.755Z,18.70
2018-06-10T04:56:05.200Z,18.80
2018-06-10T04:58:33.636Z,18.90
2018-06-10T05:01:02.185Z,19.00
2018-06-10T05:03:30.574Z,19.00
2018-06-10T05:05:58.980Z,19.10
2018-06-10T05:08:27.365Z,19.20
2018-06-10T05:10:55.783Z,19.20
2018-06-10T05:13:24.289Z,19.30
2018-06-10T05:15:52.704Z,19.50
2018-06-10T05:18:21.089Z,19.60
2018-06-10T05:20:49.513Z,19.60
2018-06-10T05:23:17.886Z,19.70
2018-06-10T05:25:46.304Z,19.80
2018-06-10T05:28:14.730Z,19.90
2018-06-10T05:30:43.165Z,20.20
2018-06-10T05:35:39.684Z,20.30
2018-06-10T05:38:08.076Z,20.40
2018-06-10T05:40:36.499Z,20.50
2018-06-10T05:43:04.949Z,20.70
2018-06-10T05:45:33.372Z,20.90
2018-06-10T05:48:01.768Z,21.10
2018-06-10T05:50:30.189Z,21.20
2018-06-10T05:52:58.569Z,21.30
2018-06-10T05:55:26.973Z,21.50
2018-06-10T05:57:55.383Z,21.60
2018-06-10T06:00:23.812Z,21.70
2018-06-10T06:02:52.199Z,21.80
2018-06-10T06:05:20.612Z,22.30
2018-06-10T06:07:49.013Z,23.00
2018-06-10T06:10:17.429Z,23.20
2018-06-10T06:12:45.808Z,23.60
2018-06-10T06:15:14.220Z,23.80
2018-06-10T06:17:42.594Z,24.10
2018-06-10T06:20:11.010Z,24.60
2018-06-10T06:22:39.428Z,25.30
2018-06-10T06:25:07.873Z,26.00
2018-06-10T06:27:36.265Z,26.80
2018-06-10T06:30:04.783Z,27.20
2018-06-10T06:32:33.177Z,27.30
2018-06-10T06:35:01.552Z,28.20
2018-06-10T06:39:58.231Z,29.10
2018-06-10T06:42:26.652Z,29.40
2018-06-10T06:44:55.074Z,29.80
2018-06-10T06:47:23.553Z,29.60
2018-06-10T06:49:51.953Z,29.80
2018-06-10T06:52:20.357Z,30.30
2018-06-10T06:54:48.741Z,30.60
2018-06-10T06:57:17.172Z,30.70
2018-06-10T06:59:45.552Z,30.80
2018-06-10T07:02:13.980Z,32.00
2018-06-10T07:04:42.360Z,32.50
2018-06-10T07:07:10.805Z,32.70
2018-06-10T07:09:39.203Z,32.70
2018-06-10T07:12:07.625Z,32.80
2018-06-10T07:14:36.010Z,32.70
2018-06-10T07:17:04.796Z,34.10
2018-06-10T07:19:33.178Z,34.70
2018-06-10T07:22:01.601Z,34.90
2018-06-10T07:26:58.222Z,34.30
2018-06-10T07:29:26.849Z,35.10
2018-06-10T07:31:55.381Z,35.40
2018-06-10T07:34:23.892Z,35.40
2018-06-10T07:36:52.318Z,34.80
2018-06-10T07:39:20.805Z,33.20
2018-06-10T07:41:49.231Z,33.70
2018-06-10T07:44:17.685Z,34.30
2018-06-10T07:46:46.128Z,34.10
2018-06-10T07:49:14.517Z,32.50
2018-06-10T07:51:42.981Z,32.30
2018-06-10T07:54:11.455Z,32.70
2018-06-10T07:56:39.893Z,32.40
2018-06-10T07:59:08.322Z,30.60
2018-06-10T08:01:36.818Z,29.00
2018-06-10T08:04:05.273Z,29.00
2018-06-10T08:06:33.669Z,29.90
2018-06-10T08:09:02.073Z,30.10
2018-06-10T08:11:30.544Z,30.70
2018-06-10T08:13:58.944Z,31.60
2018-06-10T08:16:27.361Z,32.40
2018-06-10T08:18:55.754Z,32.60
2018-06-10T08:21:24.196Z,32.80
2018-06-10T08:23:52.577Z,32.20
2018-06-10T08:26:21.000Z,31.30
2018-06-10T08:28:49.392Z,29.00
2018-06-10T08:31:17.770Z,28.80
2018-06-10T08:33:46.320Z,27.50
2018-06-10T08:36:14.716Z,27.60
2018-06-10T08:41:11.228Z,28.50
2018-06-10T08:43:39.616Z,28.90
2018-06-10T08:46:08.033Z,29.00
2018-06-10T08:48:36.441Z,29.10
2018-06-10T08:51:04.847Z,29.60
2018-06-10T08:53:33.253Z,31.30
2018-06-10T08:56:01.633Z,32.30
2018-06-10T08:58:30.068Z,32.00
2018-06-10T09:00:58.464Z,31.50
2018-06-10T09:03:26.909Z,30.00
2018-06-10T09:05:55.297Z,29.10
2018-06-10T09:08:23.735Z,30.30
2018-06-10T09:10:52.114Z,31.20
2018-06-10T09:13:20.533Z,31.50
2018-06-10T09:15:48.991Z,32.40
2018-06-10T09:18:17.408Z,33.10
2018-06-10T09:23:14.369Z,35.70
2018-06-10T09:25:42.772Z,37.20
2018-06-10T09:28:11.286Z,36.70
2018-06-10T09:30:39.672Z,36.00
2018-06-10T09:33:08.114Z,31.90
2018-06-10T09:35:36.515Z,30.80
2018-06-10T09:38:05.166Z,30.40
2018-06-10T09:40:33.560Z,28.70
2018-06-10T09:43:01.965Z,29.30
2018-06-10T09:45:30.357Z,30.90
2018-06-10T09:47:58.772Z,33.20
2018-06-10T09:50:27.209Z,33.40
2018-06-10T09:52:55.636Z,33.40
2018-06-10T09:55:25.045Z,31.70
2018-06-10T09:57:55.067Z,30.60
2018-06-10T10:00:24.979Z,29.30
2018-06-10T10:02:53.722Z,28.60
2018-06-10T10:05:22.181Z,28.20
2018-06-10T10:07:50.753Z,28.80
2018-06-10T10:10:19.236Z,30.70
2018-06-10T10:12:47.643Z,30.70
2018-06-10T10:15:16.081Z,31.60
2018-06-10T10:17:44.702Z,32.00
2018-06-10T10:20:13.144Z,33.30
2018-06-10T10:22:41.569Z,33.40
2018-06-10T10:25:09.996Z,33.60
2018-06-10T10:30:06.662Z,34.60
2018-06-10T10:32:35.059Z,35.00
2018-06-10T10:35:03.488Z,35.10
2018-06-10T10:37:31.884Z,35.60
2018-06-10T10:40:00.297Z,35.70
2018-06-10T10:42:28.710Z,36.20
2018-06-10T10:44:57.153Z,36.10
2018-06-10T10:47:25.541Z,35.10
2018-06-10T10:49:53.971Z,34.60
2018-06-10T10:52:22.375Z,34.30
2018-06-10T10:54:50.785Z,33.10
2018-06-10T10:57:19.220Z,31.10
2018-06-10T10:59:47.652Z,30.40
2018-06-10T11:02:16.041Z,30.20
2018-06-10T11:04:44.513Z,30.10
2018-06-10T11:07:12.897Z,29.80
2018-06-10T11:09:41.289Z,29.50
2018-06-10T11:12:09.705Z,29.40
2018-06-10T11:14:38.116Z,29.40
2018-06-10T11:17:06.538Z,29.00
2018-06-10T11:19:34.953Z,28.90
2018-06-10T11:22:03.378Z,28.70
2018-06-10T11:24:31.805Z,28.30
2018-06-10T11:27:00.220Z,27.90
2018-06-10T11:29:28.616Z,27.70
2018-06-10T11:31:56.994Z,27.50
2018-06-10T11:34:25.517Z,27.80
2018-06-10T11:36:53.887Z,28.30
2018-06-10T11:39:22.305Z,28.40
2018-06-10T11:41:50.685Z,28.70
2018-06-10T11:44:19.097Z,28.60
2018-06-10T11:46:47.496Z,28.40
2018-06-10T11:49:15.902Z,28.10
2018-06-10T11:51:44.380Z,28.10
2018-06-10T11:54:12.824Z,28.00
2018-06-10T11:56:41.202Z,27.90
2018-06-10T11:59:09.621Z,28.00
2018-06-10T12:01:38.061Z,28.10
2018-06-10T12:04:06.468Z,28.20
2018-06-10T12:06:35.077Z,28.10
2018-06-10T12:09:04.732Z,28.00
2018-06-10T12:11:33.153Z,28.00
2018-06-10T12:14:01.522Z,27.60
2018-06-10T12:16:29.954Z,27.50
2018-06-10T12:18:58.357Z,27.60
2018-06-10T12:21:26.832Z,27.80
2018-06-10T12:23:55.212Z,28.00
2018-06-10T12:26:23.645Z,28.10
2018-06-10T12:28:52.040Z,28.40
2018-06-10T12:31:20.453Z,28.50
2018-06-10T12:33:48.838Z,28.20
2018-06-10T12:36:17.316Z,28.10
2018-06-10T12:38:45.733Z,27.90
2018-06-10T12:41:14.381Z,27.80
2018-06-10T12:43:42.765Z,27.50
2018-06-10T12:46:11.189Z,27.60
2018-06-10T12:48:39.592Z,27.50
2018-06-10T12:51:08.035Z,27.20
2018-06-10T12:53:36.528Z,27.10
2018-06-10T12:56:04.969Z,27.00
2018-06-10T12:58:33.395Z,27.10
2018-06-10T13:01:01.830Z,27.00
2018-06-10T13:03:30.255Z,27.10
2018-06-10T13:05:58.697Z,27.30
2018-06-10T13:08:27.164Z,27.30
2018-06-10T13:10:55.568Z,27.20
2018-06-10T13:13:23.964Z,27.00
2018-06-10T13:15:52.384Z,26.90
2018-06-10T13:18:20.769Z,26.90
2018-06-10T13:20:49.166Z,26.80
2018-06-10T13:23:17.540Z,26.60
2018-06-10T13:25:45.965Z,26.30
2018-06-10T13:28:14.348Z,26.20
2018-06-10T13:30:42.781Z,26.10
2018-06-10T13:33:11.165Z,26.10
2018-06-10T13:35:39.576Z,26.20
2018-06-10T13:38:08.197Z,26.40
2018-06-10T13:40:36.668Z,26.20
2018-06-10T13:43:05.416Z,26.00
2018-06-10T13:45:33.810Z,25.80
2018-06-10T13:48:02.226Z,25.80
2018-06-10T13:50:30.648Z,25.70
2018-06-10T13:52:59.055Z,25.30
2018-06-10T13:55:27.638Z,25.20
2018-06-10T13:57:56.092Z,25.20
2018-06-10T14:00:24.481Z,25.20
2018-06-10T14:02:52.898Z,25.40
2018-06-10T14:05:21.290Z,25.60
2018-06-10T14:07:49.705Z,25.60
2018-06-10T14:10:18.099Z,25.50
2018-06-10T14:12:46.537Z,25.50
2018-06-10T14:15:14.957Z,25.30
2018-06-10T14:17:43.364Z,25.20
2018-06-10T14:20:11.754Z,25.20
2018-06-10T14:22:40.178Z,25.10
2018-06-10T14:25:08.649Z,25.00
2018-06-10T14:27:37.090Z,24.90
2018-06-10T14:30:07.045Z,24.90
2018-06-10T14:32:35.450Z,24.90
2018-06-10T14:35:03.901Z,25.00
2018-06-10T14:37:32.339Z,24.90
2018-06-10T14:40:00.738Z,24.90
2018-06-10T14:42:29.369Z,24.90
2018-06-10T14:44:57.817Z,25.00
2018-06-10T14:47:26.253Z,25.00
2018-06-10T14:49:54.641Z,25.00
2018-06-10T14:52:23.037Z,25.00
2018-06-10T14:54:51.445Z,25.10
2018-06-10T14:57:19.887Z,25.10
2018-06-10T14:59:48.311Z,25.20
2018-06-10T15:02:16.761Z,25.20
2018-06-10T15:04:45.152Z,25.20
2018-06-10T15:09:41.748Z,25.10
2018-06-10T15:12:10.185Z,25.10
2018-06-10T15:14:38.582Z,25.10
2018-06-10T15:17:06.984Z,25.10
2018-06-10T15:19:35.381Z,25.10
2018-06-10T15:22:03.791Z,25.20
2018-06-10T15:24:32.181Z,25.10
2018-06-10T15:27:00.581Z,25.10
2018-06-10T15:29:28.988Z,25.10
2018-06-10T15:31:57.366Z,25.00
2018-06-10T15:34:25.851Z,25.00
2018-06-10T15:36:54.236Z,25.10
2018-06-10T15:39:22.616Z,25.10
2018-06-10T15:44:19.122Z,25.10
2018-06-10T15:46:47.512Z,25.00
2018-06-10T15:49:15.917Z,25.00
2018-06-10T15:51:44.344Z,25.00
2018-06-10T15:54:12.778Z,25.10
2018-06-10T15:56:41.421Z,25.20
2018-06-10T15:59:09.879Z,25.20
2018-06-10T16:01:38.297Z,25.20
2018-06-10T16:04:06.857Z,25.20
2018-06-10T16:06:35.294Z,25.20
2018-06-10T16:09:03.952Z,25.30
2018-06-10T16:11:32.354Z,25.30
2018-06-10T16:14:00.815Z,25.30
2018-06-10T16:16:29.298Z,25.20
2018-06-10T16:18:57.727Z,25.20
2018-06-10T16:21:26.419Z,25.10
2018-06-10T16:23:54.840Z,25.10
2018-06-10T16:26:23.265Z,25.00
2018-06-10T16:28:51.673Z,25.10
2018-06-10T16:31:20.085Z,25.10
2018-06-10T16:33:48.493Z,25.00
2018-06-10T16:36:16.899Z,25.10
2018-06-10T16:38:45.420Z,25.10
2018-06-10T16:41:13.805Z,25.00
2018-06-10T16:43:42.238Z,25.00
2018-06-10T16:46:10.632Z,25.00
2018-06-10T16:48:39.115Z,25.00
2018-06-10T16:51:07.489Z,25.00
2018-06-10T16:53:35.900Z,25.00
2018-06-10T16:56:04.794Z,24.90
2018-06-10T16:58:33.233Z,24.90
2018-06-10T17:01:01.630Z,24.90
2018-06-10T17:03:30.063Z,24.90
2018-06-10T17:05:58.438Z,24.80
2018-06-10T17:08:26.850Z,24.80
2018-06-10T17:10:55.244Z,24.70
2018-06-10T17:13:23.684Z,24.70
2018-06-10T17:15:52.093Z,24.60
2018-06-10T17:18:20.478Z,24.50
2018-06-10T17:20:49.176Z,24.30
2018-06-10T17:23:17.584Z,24.20
2018-06-10T17:25:46.016Z,24.10
2018-06-10T17:28:14.385Z,24.10
2018-06-10T17:30:42.821Z,24.00
2018-06-10T17:33:11.200Z,23.90
2018-06-10T17:35:39.613Z,23.90
2018-06-10T17:38:08.060Z,23.90
2018-06-10T17:40:36.482Z,23.90
2018-06-10T17:43:04.877Z,23.90
2018-06-10T17:45:33.301Z,24.00
2018-06-10T17:48:01.706Z,24.00
2018-06-10T17:50:30.393Z,24.00
2018-06-10T17:52:58.808Z,24.10
2018-06-10T17:57:55.325Z,24.10
2018-06-10T18:02:51.927Z,24.10
2018-06-10T18:05:20.354Z,24.00
2018-06-10T18:07:48.792Z,24.00
2018-06-10T18:10:17.342Z,24.00
2018-06-10T18:12:45.815Z,23.90
2018-06-10T18:15:14.254Z,23.90
2018-06-10T18:17:42.642Z,23.90
2018-06-10T18:20:11.157Z,23.90
2018-06-10T18:22:39.604Z,23.90
2018-06-10T18:25:08.089Z,23.80
2018-06-10T18:27:36.523Z,23.80
2018-06-10T18:30:05.581Z,23.70
2018-06-10T18:32:33.998Z,23.70
2018-06-10T18:35:02.631Z,23.60
2018-06-10T18:37:31.033Z,23.60
2018-06-10T18:39:59.477Z,23.40
2018-06-10T18:42:27.904Z,23.40
2018-06-10T18:44:56.353Z,23.30
2018-06-10T18:47:24.786Z,23.30
2018-06-10T18:49:53.186Z,23.20
2018-06-10T18:52:21.571Z,23.20
2018-06-10T18:54:49.969Z,23.10
2018-06-10T18:57:18.438Z,23.00
2018-06-10T18:59:46.848Z,22.90
2018-06-10T19:02:15.263Z,22.90
2018-06-10T19:04:43.717Z,22.80
2018-06-10T19:09:40.241Z,22.60
2018-06-10T19:12:08.693Z,22.50
2018-06-10T19:14:37.105Z,22.40
2018-06-10T19:17:05.533Z,22.40
2018-06-10T19:19:33.937Z,22.30
2018-06-10T19:22:02.457Z,22.20
2018-06-10T19:24:30.880Z,22.10
2018-06-10T19:26:59.297Z,22.00
2018-06-10T19:31:55.886Z,21.90
2018-06-10T19:34:24.278Z,21.90
2018-06-10T19:36:52.704Z,21.80
2018-06-10T19:39:21.089Z,21.80
2018-06-10T19:41:49.489Z,21.80
2018-06-10T19:44:17.904Z,21.70
2018-06-10T19:46:46.331Z,21.70
2018-06-10T19:49:14.712Z,21.60
2018-06-10T19:51:43.133Z,21.60
2018-06-10T19:54:11.507Z,21.60
2018-06-10T19:56:39.953Z,21.50
2018-06-10T19:59:08.360Z,21.50
2018-06-10T20:01:36.784Z,21.40
2018-06-10T20:04:05.259Z,21.40
2018-06-10T20:06:33.672Z,21.30
2018-06-10T20:09:02.054Z,21.30
2018-06-10T20:11:30.473Z,21.30
2018-06-10T20:16:27.003Z,21.20
2018-06-10T20:18:55.401Z,21.10
2018-06-10T20:21:23.826Z,21.10
2018-06-10T20:23:52.224Z,21.10
2018-06-10T20:26:20.637Z,21.10
2018-06-10T20:28:49.093Z,21.10
2018-06-10T20:31:17.513Z,21.00
2018-06-10T20:33:45.896Z,21.00
2018-06-10T20:36:14.332Z,20.80
2018-06-10T20:38:42.740Z,20.80
2018-06-10T20:41:11.193Z,20.70
2018-06-10T20:43:39.579Z,20.70
2018-06-10T20:46:08.058Z,20.70
2018-06-10T20:48:36.509Z,20.60
2018-06-10T20:51:04.916Z,20.50
2018-06-10T20:53:33.329Z,20.50
2018-06-10T20:56:01.700Z,20.50
2018-06-10T20:58:30.228Z,20.40
2018-06-10T21:00:58.596Z,20.40
2018-06-10T21:05:55.108Z,20.40
2018-06-10T21:08:23.517Z,20.40
2018-06-10T21:10:52.540Z,20.40
2018-06-10T21:13:20.969Z,20.30
2018-06-10T21:15:49.373Z,20.20
2018-06-10T21:18:17.810Z,20.20
2018-06-10T21:20:46.177Z,20.20
2018-06-10T21:23:14.593Z,20.20
2018-06-10T21:25:42.977Z,20.10
2018-06-10T21:28:11.396Z,20.10
2018-06-10T21:30:39.801Z,20.10
2018-06-10T21:33:08.357Z,20.10
2018-06-10T21:35:36.761Z,20.00
2018-06-10T21:38:05.527Z,20.00
2018-06-10T21:40:33.941Z,20.00
2018-06-10T21:43:02.597Z,20.00
2018-06-10T21:45:31.031Z,19.90
2018-06-10T21:47:59.443Z,19.90
2018-06-10T21:50:27.832Z,19.90
2018-06-10T21:52:56.254Z,19.90
2018-06-10T21:55:24.630Z,19.80
2018-06-10T21:57:53.105Z,19.80
2018-06-10T22:00:25.651Z,19.70
2018-06-10T22:02:54.222Z,19.70
2018-06-10T22:05:22.720Z,19.70
2018-06-10T22:07:51.258Z,19.70
2018-06-10T22:10:19.649Z,19.80
2018-06-10T22:12:48.283Z,19.80
2018-06-10T22:15:16.672Z,19.90
2018-06-10T22:17:45.083Z,19.90
2018-06-10T22:20:13.476Z,19.90
2018-06-10T22:22:41.882Z,19.90
2018-06-10T22:25:10.434Z,19.90
2018-06-10T22:27:38.833Z,19.90
2018-06-10T22:30:07.221Z,19.90
2018-06-10T22:32:35.664Z,19.90
2018-06-10T22:35:04.092Z,19.90
2018-06-10T22:37:32.496Z,19.80
2018-06-10T22:40:00.924Z,19.80
2018-06-10T22:42:29.390Z,19.80
2018-06-10T22:44:57.805Z,19.70
2018-06-10T22:47:26.209Z,19.70
2018-06-10T22:49:54.633Z,19.60
2018-06-10T22:52:23.020Z,19.60
2018-06-10T22:54:51.433Z,19.50
2018-06-10T22:57:19.841Z,19.50
2018-06-10T22:59:48.357Z,19.50
2018-06-10T23:02:16.793Z,19.40
2018-06-10T23:04:45.211Z,19.40
2018-06-10T23:07:13.664Z,19.40
2018-06-10T23:09:42.048Z,19.40
2018-06-10T23:12:10.465Z,19.40
2018-06-10T23:14:38.896Z,19.40
2018-06-10T23:17:07.309Z,19.40
2018-06-10T23:19:35.704Z,19.30
2018-06-10T23:22:04.099Z,19.30
2018-06-10T23:24:32.697Z,19.30
2018-06-10T23:27:01.105Z,19.30
2018-06-10T23:29:29.529Z,19.30
2018-06-10T23:31:57.913Z,19.30
2018-06-10T23:34:26.324Z,19.30
2018-06-10T23:36:54.727Z,19.20
2018-06-10T23:39:23.160Z,19.20
2018-06-10T23:41:51.724Z,19.10
2018-06-10T23:44:20.140Z,19.10
2018-06-10T23:46:48.573Z,19.10
2018-06-10T23:49:17.075Z,19.10
2018-06-10T23:51:45.925Z,19.10
2018-06-10T23:54:14.349Z,19.00
2018-06-10T23:56:42.728Z,19.00
2018-06-10T23:59:11.285Z,19.00
